createdAt,value
2023-10-29T00:00:56.541Z,58.33
2023-10-29T00:01:56.612Z,59.14
2023-10-29T00:02:56.546Z,57.04
2023-10-29T00:03:56.581Z,59.62
2023-10-29T00:04:56.461Z,59.30
2023-10-29T00:05:56.463Z,59.94
2023-10-29T00:06:56.397Z,59.78
2023-10-29T00:07:56.428Z,60.42
2023-10-29T00:08:56.423Z,59.46
2023-10-29T00:09:56.350Z,57.85
2023-10-29T00:10:57.370Z,56.40
2023-10-29T00:11:56.354Z,58.81
2023-10-29T00:12:57.953Z,50.60
2023-10-29T00:13:56.362Z,53.01
2023-10-29T00:14:56.499Z,58.33
2023-10-29T00:15:56.907Z,57.04
2023-10-29T00:16:57.639Z,59.14
2023-10-29T00:17:58.600Z,59.46
2023-10-29T00:18:58.796Z,52.69
2023-10-29T00:19:56.588Z,50.76
2023-10-29T00:20:57.581Z,61.55
2023-10-29T00:21:58.420Z,51.08
2023-10-29T00:22:56.956Z,49.31
2023-10-29T00:23:59.307Z,58.49
2023-10-29T00:24:56.375Z,54.30
2023-10-29T00:25:58.447Z,53.98
2023-10-29T00:26:56.848Z,52.69
2023-10-29T00:27:56.165Z,53.82
2023-10-29T00:28:56.377Z,57.85
2023-10-29T00:29:56.413Z,51.88
2023-10-29T00:30:57.311Z,57.20
2023-10-29T00:31:58.292Z,50.76
2023-10-29T00:33:01.375Z,49.79
2023-10-29T00:33:57.377Z,62.52
2023-10-29T00:34:57.615Z,49.63
2023-10-29T00:35:57.603Z,49.95
2023-10-29T00:36:57.367Z,53.17
2023-10-29T00:37:57.210Z,58.49
2023-10-29T00:38:57.194Z,56.40
2023-10-29T00:39:58.551Z,57.36
2023-10-29T00:40:56.335Z,50.60
2023-10-29T00:41:57.987Z,52.69
2023-10-29T00:42:57.021Z,52.53
2023-10-29T00:43:57.054Z,51.40
2023-10-29T00:44:56.309Z,50.76
2023-10-29T00:45:56.085Z,53.17
2023-10-29T00:46:56.079Z,57.36
2023-10-29T00:47:56.030Z,53.17
2023-10-29T00:48:56.111Z,59.14
2023-10-29T00:49:56.013Z,59.30
2023-10-29T00:50:56.222Z,61.39
2023-10-29T00:51:56.379Z,56.40
2023-10-29T00:52:57.069Z,56.72
2023-10-29T00:53:55.989Z,58.49
2023-10-29T00:54:56.076Z,56.07
2023-10-29T00:55:56.023Z,54.79
2023-10-29T00:56:56.720Z,55.75
2023-10-29T00:57:55.917Z,55.59
2023-10-29T00:58:56.105Z,60.75
2023-10-29T00:59:56.015Z,58.17
2023-10-29T01:00:57.554Z,58.01
2023-10-29T01:01:56.059Z,58.65
2023-10-29T01:02:55.960Z,58.33
2023-10-29T01:03:56.136Z,57.04
2023-10-29T01:04:55.866Z,56.88
2023-10-29T01:05:56.257Z,59.14
2023-10-29T01:06:56.565Z,59.30
2023-10-29T01:07:56.008Z,58.65
2023-10-29T01:08:55.823Z,58.17
2023-10-29T01:09:56.925Z,61.07
2023-10-29T01:10:56.777Z,61.55
2023-10-29T01:11:55.820Z,62.68
2023-10-29T01:12:56.733Z,61.87
2023-10-29T01:13:59.002Z,61.39
2023-10-29T01:14:55.766Z,64.61
2023-10-29T01:15:56.358Z,61.39
2023-10-29T01:16:55.713Z,61.87
2023-10-29T01:17:55.804Z,61.23
2023-10-29T01:18:58.742Z,61.39
2023-10-29T01:19:58.968Z,62.52
2023-10-29T01:20:55.706Z,62.36
2023-10-29T01:21:55.626Z,61.39
2023-10-29T01:22:57.620Z,63.16
2023-10-29T01:23:55.812Z,62.36
2023-10-29T01:24:56.646Z,63.16
2023-10-29T01:25:55.670Z,63.33
2023-10-29T01:26:55.682Z,63.33
2023-10-29T01:27:57.834Z,62.52
2023-10-29T01:28:55.636Z,60.10
2023-10-29T01:29:55.629Z,61.07
2023-10-29T01:30:55.533Z,61.07
2023-10-29T01:31:55.563Z,60.10
2023-10-29T01:32:55.650Z,60.10
2023-10-29T01:33:55.700Z,56.72
2023-10-29T01:34:55.511Z,57.69
2023-10-29T01:35:55.486Z,57.85
2023-10-29T01:36:57.976Z,57.36
2023-10-29T01:37:56.479Z,57.04
2023-10-29T01:38:55.476Z,59.78
2023-10-29T01:39:55.447Z,59.14
2023-10-29T01:40:55.456Z,57.52
2023-10-29T01:41:55.488Z,56.07
2023-10-29T01:42:55.739Z,56.40
2023-10-29T01:43:55.467Z,61.87
2023-10-29T01:44:55.468Z,56.88
2023-10-29T01:45:55.429Z,56.07
2023-10-29T01:46:55.371Z,56.88
2023-10-29T01:47:55.477Z,58.49
2023-10-29T01:48:55.435Z,56.07
2023-10-29T01:49:55.343Z,55.91
2023-10-29T01:50:55.468Z,55.59
2023-10-29T01:51:55.330Z,55.91
2023-10-29T01:52:55.318Z,57.69
2023-10-29T01:53:55.996Z,55.75
2023-10-29T01:54:55.307Z,57.36
2023-10-29T01:55:55.330Z,57.85
2023-10-29T01:56:55.345Z,56.72
2023-10-29T01:57:55.289Z,56.72
2023-10-29T01:58:55.252Z,56.72
2023-10-29T01:59:55.368Z,56.56
2023-10-29T02:00:55.264Z,61.07
2023-10-29T02:01:57.293Z,61.87
2023-10-29T02:02:55.434Z,55.11
2023-10-29T02:03:55.311Z,55.11
2023-10-29T02:04:55.204Z,55.27
2023-10-29T02:05:55.358Z,55.75
2023-10-29T02:06:55.198Z,54.62
2023-10-29T02:07:55.152Z,54.46
2023-10-29T02:08:55.231Z,54.95
2023-10-29T02:09:55.156Z,54.62
2023-10-29T02:10:55.146Z,58.81
2023-10-29T02:11:55.183Z,57.20
2023-10-29T02:12:55.112Z,55.27
2023-10-29T02:13:56.154Z,54.79
2023-10-29T02:14:55.147Z,54.30
2023-10-29T02:15:55.130Z,54.79
2023-10-29T02:16:55.118Z,61.55
2023-10-29T02:17:55.092Z,55.11
2023-10-29T02:18:55.102Z,54.14
2023-10-29T02:19:55.082Z,55.11
2023-10-29T02:20:55.104Z,54.30
2023-10-29T02:21:55.318Z,54.95
2023-10-29T02:22:55.128Z,53.50
2023-10-29T02:23:55.049Z,57.52
2023-10-29T02:24:55.065Z,54.46
2023-10-29T02:25:55.018Z,53.66
2023-10-29T02:26:55.073Z,53.82
2023-10-29T02:27:55.127Z,53.01
2023-10-29T02:28:55.041Z,53.50
2023-10-29T02:29:55.038Z,53.66
2023-10-29T02:30:54.965Z,53.66
2023-10-29T02:31:54.937Z,53.17
2023-10-29T02:32:56.091Z,54.30
2023-10-29T02:33:55.121Z,54.95
2023-10-29T02:34:54.940Z,53.33
2023-10-29T02:35:54.964Z,53.33
2023-10-29T02:36:54.951Z,53.01
2023-10-29T02:37:55.089Z,55.59
2023-10-29T02:38:54.905Z,57.69
2023-10-29T02:39:54.907Z,55.91
2023-10-29T02:40:54.850Z,53.33
2023-10-29T02:41:54.888Z,52.21
2023-10-29T02:42:54.851Z,53.33
2023-10-29T02:43:54.844Z,52.85
2023-10-29T02:44:54.836Z,52.37
2023-10-29T02:45:55.037Z,54.46
2023-10-29T02:46:54.827Z,57.52
2023-10-29T02:47:54.876Z,53.17
2023-10-29T02:48:54.886Z,53.50
2023-10-29T02:49:55.783Z,53.82
2023-10-29T02:50:54.828Z,52.21
2023-10-29T02:51:54.760Z,52.05
2023-10-29T02:52:54.852Z,57.20
2023-10-29T02:53:54.759Z,52.53
2023-10-29T02:54:54.750Z,53.98
2023-10-29T02:55:54.688Z,50.60
2023-10-29T02:56:54.735Z,51.08
2023-10-29T02:57:54.700Z,51.72
2023-10-29T02:58:54.772Z,51.08
2023-10-29T02:59:54.725Z,50.43
2023-10-29T03:00:54.650Z,48.66
2023-10-29T03:01:54.677Z,57.85
2023-10-29T03:02:54.677Z,54.14
2023-10-29T03:03:55.798Z,52.85
2023-10-29T03:04:54.589Z,51.40
2023-10-29T03:05:57.328Z,60.26
2023-10-29T03:06:55.684Z,48.98
2023-10-29T03:07:54.582Z,48.98
2023-10-29T03:08:54.604Z,55.59
2023-10-29T03:09:54.599Z,54.30
2023-10-29T03:10:54.537Z,50.92
2023-10-29T03:11:54.584Z,54.14
2023-10-29T03:12:54.525Z,49.15
2023-10-29T03:13:54.545Z,48.66
2023-10-29T03:14:54.593Z,49.31
2023-10-29T03:15:54.548Z,49.31
2023-10-29T03:16:54.540Z,50.27
2023-10-29T03:17:54.545Z,49.31
2023-10-29T03:18:54.471Z,50.11
2023-10-29T03:19:54.508Z,53.01
2023-10-29T03:20:54.550Z,56.88
2023-10-29T03:21:54.442Z,48.18
2023-10-29T03:22:54.430Z,48.82
2023-10-29T03:23:54.450Z,48.66
2023-10-29T03:24:54.596Z,56.24
2023-10-29T03:25:54.411Z,56.56
2023-10-29T03:26:54.397Z,57.36
2023-10-29T03:27:54.371Z,60.75
2023-10-29T03:28:54.353Z,56.72
2023-10-29T03:29:54.454Z,57.20
2023-10-29T03:30:54.376Z,49.63
2023-10-29T03:31:54.461Z,48.82
2023-10-29T03:32:54.336Z,49.79
2023-10-29T03:33:54.319Z,48.98
2023-10-29T03:34:54.345Z,48.34
2023-10-29T03:35:54.315Z,53.33
2023-10-29T03:36:54.280Z,55.27
2023-10-29T03:37:54.264Z,55.91
2023-10-29T03:38:54.293Z,55.91
2023-10-29T03:39:54.324Z,54.14
2023-10-29T03:40:54.243Z,53.98
2023-10-29T03:41:54.246Z,58.17
2023-10-29T03:42:54.247Z,60.42
2023-10-29T03:43:54.203Z,57.85
2023-10-29T03:44:54.225Z,60.42
2023-10-29T03:45:54.236Z,57.04
2023-10-29T03:46:54.203Z,59.62
2023-10-29T03:47:54.224Z,59.62
2023-10-29T03:48:54.958Z,59.62
2023-10-29T03:49:54.139Z,59.78
2023-10-29T03:50:54.182Z,59.14
2023-10-29T03:51:54.167Z,59.78
2023-10-29T03:52:54.128Z,59.78
2023-10-29T03:53:54.147Z,58.81
2023-10-29T03:54:54.106Z,57.52
2023-10-29T03:55:54.084Z,58.97
2023-10-29T03:56:54.132Z,57.36
2023-10-29T03:57:54.132Z,57.36
2023-10-29T03:58:54.157Z,58.33
2023-10-29T03:59:54.095Z,59.30
2023-10-29T04:00:54.070Z,59.30
2023-10-29T04:01:54.055Z,58.49
2023-10-29T04:02:54.053Z,60.59
2023-10-29T04:03:54.087Z,60.42
2023-10-29T04:05:08.158Z,60.26
2023-10-29T04:05:56.082Z,59.30
2023-10-29T04:06:53.972Z,59.30
2023-10-29T04:07:53.971Z,58.81
2023-10-29T04:08:54.179Z,58.81
2023-10-29T04:09:53.956Z,57.85
2023-10-29T04:10:54.115Z,58.81
2023-10-29T04:11:55.886Z,57.52
2023-10-29T04:12:53.906Z,58.17
2023-10-29T04:13:53.939Z,59.78
2023-10-29T04:14:53.973Z,60.91
2023-10-29T04:15:53.887Z,60.26
2023-10-29T04:16:53.871Z,60.10
2023-10-29T04:17:53.915Z,61.23
2023-10-29T04:18:53.891Z,59.14
2023-10-29T04:19:53.858Z,58.81
2023-10-29T04:20:53.920Z,63.81
2023-10-29T04:21:53.901Z,57.69
2023-10-29T04:22:53.875Z,53.82
2023-10-29T04:23:53.928Z,60.42
2023-10-29T04:24:53.792Z,54.79
2023-10-29T04:25:53.910Z,55.43
2023-10-29T04:26:53.910Z,54.95
2023-10-29T04:27:53.838Z,64.13
2023-10-29T04:28:54.192Z,54.30
2023-10-29T04:29:53.869Z,53.66
2023-10-29T04:30:53.825Z,59.46
2023-10-29T04:31:54.615Z,53.50
2023-10-29T04:32:54.168Z,56.72
2023-10-29T04:33:53.756Z,52.37
2023-10-29T04:34:53.762Z,52.85
2023-10-29T04:35:55.099Z,62.84
2023-10-29T04:36:53.682Z,52.85
2023-10-29T04:37:53.700Z,55.43
2023-10-29T04:38:53.783Z,50.60
2023-10-29T04:39:54.455Z,52.69
2023-10-29T04:40:53.888Z,56.72
2023-10-29T04:41:53.916Z,50.92
2023-10-29T04:42:53.655Z,57.36
2023-10-29T04:43:53.602Z,51.88
2023-10-29T04:44:53.625Z,51.40
2023-10-29T04:45:53.672Z,57.69
2023-10-29T04:46:53.664Z,51.56
2023-10-29T04:47:53.639Z,58.33
2023-10-29T04:48:53.552Z,57.04
2023-10-29T04:49:53.557Z,60.42
2023-10-29T04:50:54.110Z,58.81
2023-10-29T04:51:53.528Z,52.21
2023-10-29T04:52:53.677Z,50.27
2023-10-29T04:53:53.596Z,50.43
2023-10-29T04:54:53.860Z,53.66
2023-10-29T04:55:53.895Z,61.07
2023-10-29T04:56:54.611Z,54.95
2023-10-29T04:57:53.440Z,53.17
2023-10-29T04:58:53.478Z,57.04
2023-10-29T04:59:53.549Z,55.11
2023-10-29T05:00:53.430Z,54.79
2023-10-29T05:01:53.627Z,58.49
2023-10-29T05:02:53.668Z,55.75
2023-10-29T05:03:53.980Z,47.70
2023-10-29T05:04:54.959Z,57.36
2023-10-29T05:05:53.462Z,61.39
2023-10-29T05:06:53.412Z,55.75
2023-10-29T05:07:53.350Z,56.24
2023-10-29T05:08:53.394Z,52.05
2023-10-29T05:09:53.358Z,54.79
2023-10-29T05:10:53.325Z,57.52
2023-10-29T05:11:53.360Z,57.85
2023-10-29T05:12:53.913Z,57.52
2023-10-29T05:13:53.712Z,52.05
2023-10-29T05:14:53.343Z,52.05
2023-10-29T05:15:53.343Z,53.66
2023-10-29T05:16:53.321Z,47.37
2023-10-29T05:17:53.411Z,47.70
2023-10-29T05:18:53.273Z,48.98
2023-10-29T05:19:53.258Z,48.02
2023-10-29T05:20:53.291Z,56.24
2023-10-29T05:21:53.277Z,57.52
2023-10-29T05:22:53.242Z,52.21
2023-10-29T05:23:53.277Z,50.92
2023-10-29T05:24:53.222Z,48.66
2023-10-29T05:25:53.225Z,51.08
2023-10-29T05:26:53.298Z,60.91
2023-10-29T05:27:53.247Z,59.30
2023-10-29T05:28:53.170Z,60.10
2023-10-29T05:29:53.262Z,55.91
2023-10-29T05:30:53.205Z,55.75
2023-10-29T05:31:53.167Z,48.34
2023-10-29T05:32:53.165Z,47.05
2023-10-29T05:33:53.136Z,52.37
2023-10-29T05:34:53.133Z,60.42
2023-10-29T05:35:53.175Z,53.50
2023-10-29T05:36:53.098Z,52.69
2023-10-29T05:37:53.142Z,50.60
2023-10-29T05:38:53.251Z,48.66
2023-10-29T05:39:53.107Z,58.65
2023-10-29T05:40:53.844Z,66.55
2023-10-29T05:41:53.102Z,61.07
2023-10-29T05:42:53.197Z,51.88
2023-10-29T05:43:53.012Z,60.59
2023-10-29T05:44:54.165Z,56.56
2023-10-29T05:45:53.006Z,47.70
2023-10-29T05:46:53.609Z,49.79
2023-10-29T05:47:53.099Z,48.98
2023-10-29T05:48:52.952Z,60.91
2023-10-29T05:49:52.988Z,57.85
2023-10-29T05:50:52.963Z,57.04
2023-10-29T05:51:52.926Z,58.01
2023-10-29T05:52:52.921Z,49.95
2023-10-29T05:53:53.078Z,49.95
2023-10-29T05:54:52.905Z,48.98
2023-10-29T05:55:54.425Z,56.72
2023-10-29T05:56:53.138Z,54.30
2023-10-29T05:57:52.869Z,53.50
2023-10-29T05:58:52.862Z,56.24
2023-10-29T05:59:52.940Z,51.24
2023-10-29T06:00:52.947Z,58.81
2023-10-29T06:01:52.826Z,56.24
2023-10-29T06:02:52.947Z,56.07
2023-10-29T06:03:53.581Z,50.92
2023-10-29T06:04:52.943Z,49.95
2023-10-29T06:05:52.953Z,50.92
2023-10-29T06:06:52.774Z,51.24
2023-10-29T06:07:52.754Z,55.11
2023-10-29T06:08:52.792Z,59.78
2023-10-29T06:09:52.730Z,48.02
2023-10-29T06:10:52.749Z,50.92
2023-10-29T06:11:52.811Z,47.05
2023-10-29T06:12:52.693Z,49.31
2023-10-29T06:13:52.715Z,54.95
2023-10-29T06:14:52.763Z,51.24
2023-10-29T06:15:52.704Z,55.43
2023-10-29T06:16:52.727Z,57.36
2023-10-29T06:17:52.909Z,63.65
2023-10-29T06:18:52.663Z,53.50
2023-10-29T06:19:52.654Z,56.07
2023-10-29T06:20:52.668Z,64.45
2023-10-29T06:21:52.634Z,56.72
2023-10-29T06:22:52.627Z,57.20
2023-10-29T06:23:52.669Z,56.40
2023-10-29T06:24:52.590Z,58.33
2023-10-29T06:25:52.571Z,57.52
2023-10-29T06:26:52.647Z,59.14
2023-10-29T06:27:52.561Z,49.95
2023-10-29T06:28:52.560Z,62.36
2023-10-29T06:29:52.635Z,59.46
2023-10-29T06:30:52.565Z,66.39
2023-10-29T06:31:52.531Z,63.65
2023-10-29T06:32:52.576Z,62.68
2023-10-29T06:33:52.561Z,59.30
2023-10-29T06:34:52.487Z,59.62
2023-10-29T06:35:52.514Z,62.20
2023-10-29T06:36:52.970Z,58.97
2023-10-29T06:37:52.484Z,61.39
2023-10-29T06:38:53.054Z,54.30
2023-10-29T06:39:52.463Z,51.88
2023-10-29T06:40:52.445Z,62.04
2023-10-29T06:41:52.450Z,49.47
2023-10-29T06:42:53.276Z,59.46
2023-10-29T06:43:52.430Z,54.79
2023-10-29T06:44:52.443Z,56.40
2023-10-29T06:45:52.585Z,62.84
2023-10-29T06:46:52.445Z,60.10
2023-10-29T06:47:52.424Z,53.50
2023-10-29T06:48:52.343Z,56.56
2023-10-29T06:49:52.392Z,60.91
2023-10-29T06:50:52.350Z,66.39
2023-10-29T06:51:52.344Z,58.17
2023-10-29T06:52:52.369Z,66.87
2023-10-29T06:53:52.358Z,58.65
2023-10-29T06:54:52.284Z,58.81
2023-10-29T06:55:52.367Z,60.75
2023-10-29T06:56:52.406Z,60.26
2023-10-29T06:57:52.313Z,62.20
2023-10-29T06:58:52.264Z,57.52
2023-10-29T06:59:52.325Z,62.20
2023-10-29T07:00:52.301Z,63.65
2023-10-29T07:01:52.268Z,60.91
2023-10-29T07:02:52.366Z,59.94
2023-10-29T07:03:52.297Z,68.32
2023-10-29T07:04:52.227Z,60.42
2023-10-29T07:05:52.265Z,67.35
2023-10-29T07:06:52.198Z,64.45
2023-10-29T07:07:52.216Z,58.81
2023-10-29T07:08:52.215Z,56.07
2023-10-29T07:09:52.174Z,65.90
2023-10-29T07:10:52.152Z,58.17
2023-10-29T07:11:52.161Z,61.39
2023-10-29T07:12:52.150Z,63.65
2023-10-29T07:13:52.111Z,58.81
2023-10-29T07:14:52.145Z,59.30
2023-10-29T07:15:52.122Z,62.68
2023-10-29T07:16:52.094Z,62.20
2023-10-29T07:17:52.179Z,60.75
2023-10-29T07:18:52.087Z,60.42
2023-10-29T07:19:52.056Z,63.65
2023-10-29T07:20:52.058Z,58.49
2023-10-29T07:21:52.048Z,62.36
2023-10-29T07:22:52.085Z,64.45
2023-10-29T07:23:52.033Z,58.81
2023-10-29T07:24:52.029Z,61.23
2023-10-29T07:25:51.989Z,59.94
2023-10-29T07:26:52.031Z,59.62
2023-10-29T07:27:52.012Z,59.62
2023-10-29T07:28:51.994Z,60.75
2023-10-29T07:29:52.094Z,60.91
2023-10-29T07:30:51.980Z,62.20
2023-10-29T07:31:51.946Z,61.87
2023-10-29T07:32:51.978Z,67.19
2023-10-29T07:33:51.909Z,59.78
2023-10-29T07:34:51.946Z,55.59
2023-10-29T07:35:51.945Z,64.29
2023-10-29T07:36:51.886Z,62.20
2023-10-29T07:37:51.942Z,63.33
2023-10-29T07:38:51.937Z,66.23
2023-10-29T07:39:51.832Z,63.33
2023-10-29T07:40:51.845Z,59.30
2023-10-29T07:41:51.830Z,63.16
2023-10-29T07:42:51.833Z,67.51
2023-10-29T07:43:51.920Z,57.20
2023-10-29T07:44:51.812Z,57.69
2023-10-29T07:45:51.806Z,56.24
2023-10-29T07:46:51.800Z,67.03
2023-10-29T07:47:51.836Z,67.84
2023-10-29T07:48:51.759Z,61.87
2023-10-29T07:49:51.734Z,62.36
2023-10-29T07:50:51.826Z,68.96
2023-10-29T07:51:51.716Z,59.78
2023-10-29T07:52:51.777Z,56.40
2023-10-29T07:53:52.215Z,63.65
2023-10-29T07:54:52.971Z,66.39
2023-10-29T07:55:51.895Z,65.58
2023-10-29T07:56:52.110Z,61.39
2023-10-29T07:57:51.720Z,62.84
2023-10-29T07:58:51.708Z,66.71
2023-10-29T07:59:51.692Z,66.06
2023-10-29T08:00:51.657Z,65.90
2023-10-29T08:01:51.608Z,61.23
2023-10-29T08:02:51.686Z,65.26
2023-10-29T08:03:52.671Z,61.39
2023-10-29T08:04:51.597Z,66.55
2023-10-29T08:05:51.626Z,66.23
2023-10-29T08:06:51.548Z,60.59
2023-10-29T08:07:51.583Z,65.58
2023-10-29T08:08:51.600Z,66.23
2023-10-29T08:09:51.648Z,65.26
2023-10-29T08:10:52.481Z,69.93
2023-10-29T08:11:51.558Z,68.16
2023-10-29T08:12:51.485Z,64.78
2023-10-29T08:13:51.499Z,61.87
2023-10-29T08:14:51.589Z,64.78
2023-10-29T08:15:51.497Z,67.35
2023-10-29T08:16:51.484Z,66.06
2023-10-29T08:17:51.495Z,65.58
2023-10-29T08:18:51.453Z,65.10
2023-10-29T08:19:51.460Z,69.13
2023-10-29T08:20:51.443Z,67.19
2023-10-29T08:21:51.474Z,65.58
2023-10-29T08:22:51.465Z,68.00
2023-10-29T08:23:51.417Z,70.25
2023-10-29T08:24:51.384Z,70.74
2023-10-29T08:25:51.385Z,67.51
2023-10-29T08:26:51.420Z,67.35
2023-10-29T08:27:51.328Z,66.87
2023-10-29T08:28:51.331Z,67.51
2023-10-29T08:29:51.355Z,66.06
2023-10-29T08:30:51.333Z,66.06
2023-10-29T08:31:51.311Z,60.91
2023-10-29T08:32:51.584Z,68.48
2023-10-29T08:33:51.281Z,67.35
2023-10-29T08:34:51.307Z,65.42
2023-10-29T08:35:51.258Z,67.68
2023-10-29T08:36:51.265Z,62.84
2023-10-29T08:37:51.244Z,69.45
2023-10-29T08:38:51.285Z,64.45
2023-10-29T08:39:51.217Z,71.54
2023-10-29T08:40:51.262Z,69.77
2023-10-29T08:41:51.232Z,70.09
2023-10-29T08:42:51.173Z,68.32
2023-10-29T08:43:51.176Z,64.78
2023-10-29T08:44:51.452Z,68.80
2023-10-29T08:45:51.249Z,72.99
2023-10-29T08:46:51.184Z,65.42
2023-10-29T08:47:53.580Z,66.71
2023-10-29T08:48:51.943Z,70.74
2023-10-29T08:49:51.821Z,68.64
2023-10-29T08:50:51.083Z,69.13
2023-10-29T08:51:51.292Z,66.87
2023-10-29T08:52:51.079Z,71.87
2023-10-29T08:53:51.080Z,68.96
2023-10-29T08:54:51.058Z,64.78
2023-10-29T08:55:51.051Z,68.48
2023-10-29T08:56:51.124Z,68.00
2023-10-29T08:57:51.001Z,65.26
2023-10-29T08:58:50.985Z,67.51
2023-10-29T08:59:51.162Z,66.55
2023-10-29T09:00:50.978Z,64.78
2023-10-29T09:01:50.974Z,69.45
2023-10-29T09:02:51.029Z,64.78
2023-10-29T09:03:51.179Z,67.68
2023-10-29T09:04:50.929Z,67.03
2023-10-29T09:05:50.951Z,67.68
2023-10-29T09:06:51.905Z,69.77
2023-10-29T09:07:55.326Z,69.13
2023-10-29T09:08:51.166Z,67.51
2023-10-29T09:09:50.886Z,68.16
2023-10-29T09:10:51.219Z,68.32
2023-10-29T09:11:51.066Z,66.23
2023-10-29T09:12:50.914Z,67.19
2023-10-29T09:13:50.832Z,67.68
2023-10-29T09:14:51.041Z,73.48
2023-10-29T09:15:50.823Z,68.64
2023-10-29T09:16:50.893Z,68.16
2023-10-29T09:17:50.826Z,66.39
2023-10-29T09:18:50.809Z,71.38
2023-10-29T09:19:51.214Z,68.16
2023-10-29T09:20:50.776Z,70.09
2023-10-29T09:21:50.774Z,67.68
2023-10-29T09:22:51.283Z,70.42
2023-10-29T09:23:50.801Z,67.03
2023-10-29T09:24:50.765Z,67.35
2023-10-29T09:25:50.773Z,68.80
2023-10-29T09:26:50.694Z,67.35
2023-10-29T09:27:51.526Z,69.61
2023-10-29T09:28:50.686Z,68.80
2023-10-29T09:29:50.744Z,69.45
2023-10-29T09:30:50.650Z,69.13
2023-10-29T09:31:50.675Z,69.61
2023-10-29T09:32:50.686Z,70.25
2023-10-29T09:33:50.605Z,66.55
2023-10-29T09:34:50.590Z,69.13
2023-10-29T09:35:50.659Z,68.48
2023-10-29T09:36:50.710Z,68.64
2023-10-29T09:37:50.666Z,70.09
2023-10-29T09:38:50.606Z,69.45
2023-10-29T09:39:50.658Z,70.90
2023-10-29T09:40:51.945Z,68.64
2023-10-29T09:41:50.520Z,68.80
2023-10-29T09:42:51.408Z,71.22
2023-10-29T09:43:50.486Z,69.45
2023-10-29T09:44:50.578Z,69.61
2023-10-29T09:45:51.603Z,69.13
2023-10-29T09:46:50.465Z,65.42
2023-10-29T09:47:50.513Z,69.45
2023-10-29T09:48:50.744Z,71.38
2023-10-29T09:49:50.427Z,70.09
2023-10-29T09:50:50.494Z,69.29
2023-10-29T09:51:50.426Z,68.64
2023-10-29T09:52:50.376Z,73.15
2023-10-29T09:53:50.407Z,73.15
2023-10-29T09:54:50.634Z,67.35
2023-10-29T09:55:50.427Z,67.19
2023-10-29T09:56:52.422Z,69.29
2023-10-29T09:57:55.279Z,71.22
2023-10-29T09:58:50.325Z,64.45
2023-10-29T09:59:50.356Z,67.19
2023-10-29T10:00:50.296Z,69.13
2023-10-29T10:01:58.461Z,71.22
2023-10-29T10:02:52.511Z,69.77
2023-10-29T10:03:50.338Z,69.77
2023-10-29T10:04:50.478Z,69.45
2023-10-29T10:05:50.282Z,69.13
2023-10-29T10:06:50.335Z,68.96
2023-10-29T10:07:52.359Z,69.13
2023-10-29T10:08:50.221Z,71.70
2023-10-29T10:09:50.235Z,69.13
2023-10-29T10:10:50.189Z,69.93
2023-10-29T10:11:50.205Z,67.68
2023-10-29T10:12:50.175Z,72.19
2023-10-29T10:13:50.143Z,71.22
2023-10-29T10:14:50.275Z,69.29
2023-10-29T10:15:50.164Z,70.90
2023-10-29T10:16:50.117Z,69.45
2023-10-29T10:17:50.247Z,71.87
2023-10-29T10:18:50.106Z,70.25
2023-10-29T10:19:50.088Z,71.22
2023-10-29T10:20:50.125Z,71.70
2023-10-29T10:21:50.144Z,72.35
2023-10-29T10:22:50.079Z,70.25
2023-10-29T10:23:50.082Z,67.84
2023-10-29T10:24:50.478Z,69.13
2023-10-29T10:25:50.155Z,71.22
2023-10-29T10:26:50.093Z,71.06
2023-10-29T10:27:50.035Z,71.87
2023-10-29T10:28:50.059Z,70.25
2023-10-29T10:29:49.981Z,72.35
2023-10-29T10:30:49.967Z,72.99
2023-10-29T10:31:50.019Z,68.96
2023-10-29T10:32:50.024Z,71.22
2023-10-29T10:33:49.941Z,71.22
2023-10-29T10:34:49.979Z,68.80
2023-10-29T10:35:49.897Z,71.70
2023-10-29T10:36:49.893Z,72.99
2023-10-29T10:37:49.948Z,70.42
2023-10-29T10:38:49.897Z,73.64
2023-10-29T10:39:49.855Z,70.74
2023-10-29T10:40:49.834Z,69.77
2023-10-29T10:41:49.859Z,69.93
2023-10-29T10:42:49.835Z,70.58
2023-10-29T10:43:49.804Z,72.51
2023-10-29T10:44:49.932Z,72.19
2023-10-29T10:45:49.837Z,68.64
2023-10-29T10:46:49.837Z,71.38
2023-10-29T10:47:49.827Z,65.26
2023-10-29T10:48:50.343Z,72.99
2023-10-29T10:49:49.756Z,71.70
2023-10-29T10:50:49.786Z,66.23
2023-10-29T10:51:49.715Z,69.93
2023-10-29T10:52:49.854Z,67.51
2023-10-29T10:53:49.716Z,71.87
2023-10-29T10:54:49.847Z,69.13
2023-10-29T10:56:02.334Z,71.22
2023-10-29T10:56:51.759Z,70.25
2023-10-29T10:57:49.635Z,69.93
2023-10-29T10:58:49.672Z,72.03
2023-10-29T10:59:51.201Z,72.35
2023-10-29T11:00:49.733Z,69.29
2023-10-29T11:01:49.733Z,68.64
2023-10-29T11:02:49.720Z,68.48
2023-10-29T11:03:49.748Z,70.58
2023-10-29T11:04:50.252Z,68.00
2023-10-29T11:05:49.733Z,70.58
2023-10-29T11:06:49.541Z,67.84
2023-10-29T11:07:49.627Z,73.15
2023-10-29T11:08:49.578Z,70.42
2023-10-29T11:09:50.498Z,67.68
2023-10-29T11:10:49.817Z,69.93
2023-10-29T11:11:49.917Z,70.42
2023-10-29T11:12:50.626Z,70.42
2023-10-29T11:13:50.570Z,69.93
2023-10-29T11:14:49.639Z,72.35
2023-10-29T11:15:49.543Z,70.58
2023-10-29T11:16:49.485Z,72.99
2023-10-29T11:17:49.525Z,66.71
2023-10-29T11:18:49.770Z,68.64
2023-10-29T11:19:49.394Z,70.90
2023-10-29T11:20:49.729Z,70.25
2023-10-29T11:21:49.363Z,70.90
2023-10-29T11:22:49.342Z,72.35
2023-10-29T11:23:49.382Z,73.32
2023-10-29T11:24:50.097Z,69.77
2023-10-29T11:25:49.323Z,71.22
2023-10-29T11:26:49.316Z,70.25
2023-10-29T11:27:49.795Z,72.19
2023-10-29T11:28:49.284Z,72.19
2023-10-29T11:29:49.351Z,72.35
2023-10-29T11:30:49.331Z,70.58
2023-10-29T11:31:49.433Z,72.03
2023-10-29T11:32:49.341Z,72.19
2023-10-29T11:33:49.215Z,74.93
2023-10-29T11:34:49.348Z,71.38
2023-10-29T11:35:49.203Z,67.35
2023-10-29T11:36:49.264Z,66.87
2023-10-29T11:37:50.016Z,71.54
2023-10-29T11:38:49.291Z,68.96
2023-10-29T11:39:49.340Z,71.22
2023-10-29T11:40:49.219Z,73.15
2023-10-29T11:41:49.293Z,72.35
2023-10-29T11:42:49.172Z,70.58
2023-10-29T11:43:49.355Z,72.03
2023-10-29T11:44:49.361Z,68.16
2023-10-29T11:45:49.230Z,71.87
2023-10-29T11:46:49.139Z,69.77
2023-10-29T11:47:49.209Z,73.48
2023-10-29T11:48:49.088Z,71.06
2023-10-29T11:49:49.015Z,67.51
2023-10-29T11:50:49.046Z,67.68
2023-10-29T11:51:49.335Z,68.32
2023-10-29T11:52:49.121Z,70.25
2023-10-29T11:53:48.990Z,70.90
2023-10-29T11:54:49.290Z,72.03
2023-10-29T11:55:48.936Z,69.29
2023-10-29T11:56:48.970Z,72.67
2023-10-29T11:57:49.086Z,70.90
2023-10-29T11:58:48.943Z,72.35
2023-10-29T11:59:48.938Z,70.09
2023-10-29T12:00:49.345Z,69.93
2023-10-29T12:01:48.878Z,72.35
2023-10-29T12:02:48.924Z,70.74
2023-10-29T12:03:49.249Z,70.25
2023-10-29T12:04:49.181Z,72.99
2023-10-29T12:05:48.942Z,72.51
2023-10-29T12:06:48.863Z,72.19
2023-10-29T12:07:48.820Z,70.90
2023-10-29T12:08:48.823Z,71.87
2023-10-29T12:09:49.223Z,74.93
2023-10-29T12:10:48.877Z,73.15
2023-10-29T12:11:48.790Z,74.44
2023-10-29T12:12:48.748Z,71.70
2023-10-29T12:13:48.848Z,72.67
2023-10-29T12:14:49.177Z,72.83
2023-10-29T12:15:48.804Z,70.74
2023-10-29T12:16:48.782Z,73.32
2023-10-29T12:17:48.882Z,70.25
2023-10-29T12:18:48.693Z,71.22
2023-10-29T12:19:48.871Z,74.12
2023-10-29T12:20:48.701Z,72.51
2023-10-29T12:21:48.698Z,73.48
2023-10-29T12:22:48.708Z,72.19
2023-10-29T12:23:48.685Z,71.54
2023-10-29T12:24:48.845Z,73.48
2023-10-29T12:25:48.612Z,70.90
2023-10-29T12:26:48.730Z,69.61
2023-10-29T12:27:48.573Z,75.41
2023-10-29T12:28:48.582Z,72.35
2023-10-29T12:29:48.693Z,71.87
2023-10-29T12:30:48.573Z,74.77
2023-10-29T12:31:48.568Z,71.70
2023-10-29T12:32:48.666Z,72.99
2023-10-29T12:33:48.499Z,72.03
2023-10-29T12:34:48.715Z,73.96
2023-10-29T12:35:48.579Z,72.03
2023-10-29T12:36:48.746Z,75.09
2023-10-29T12:37:48.473Z,75.09
2023-10-29T12:38:48.543Z,71.87
2023-10-29T12:39:48.447Z,72.51
2023-10-29T12:40:48.467Z,72.19
2023-10-29T12:41:48.437Z,71.22
2023-10-29T12:42:48.430Z,71.06
2023-10-29T12:43:48.533Z,73.80
2023-10-29T12:44:48.688Z,73.32
2023-10-29T12:45:48.922Z,73.15
2023-10-29T12:46:49.018Z,73.32
2023-10-29T12:47:48.543Z,73.80
2023-10-29T12:48:48.440Z,72.03
2023-10-29T12:49:48.340Z,69.29
2023-10-29T12:50:48.353Z,72.19
2023-10-29T12:51:48.389Z,70.74
2023-10-29T12:52:48.593Z,69.61